createdAt,value
2018-06-02T00:00:48.156Z,97177.38
2018-06-02T00:03:16.551Z,97177.89
2018-06-02T00:05:45.747Z,97178.20
2018-06-02T00:08:14.880Z,97176.15
2018-06-02T00:10:43.756Z,97176.42
2018-06-02T00:13:12.138Z,97174.61
2018-06-02T00:15:40.715Z,97178.60
2018-06-02T00:18:09.172Z,97178.91
2018-06-02T00:20:38.188Z,97177.20
2018-06-02T00:23:06.581Z,97172.06
2018-06-02T00:25:34.987Z,97176.11
2018-06-02T00:28:04.235Z,97173.55
2018-06-02T00:30:33.100Z,97171.84
2018-06-02T00:33:01.480Z,97172.69
2018-06-02T00:35:30.112Z,97166.23
2018-06-02T00:37:58.494Z,97171.89
2018-06-02T00:40:26.886Z,97172.60
2018-06-02T00:42:55.264Z,97177.40
2018-06-02T00:45:23.680Z,97171.21
2018-06-02T00:47:52.064Z,97177.34
2018-06-02T00:50:20.463Z,97177.11
2018-06-02T00:52:48.844Z,97171.19
2018-06-02T00:55:17.248Z,97175.94
2018-06-02T00:57:45.644Z,97172.92
2018-06-02T01:00:14.061Z,97168.38
2018-06-02T01:02:42.447Z,97167.31
2018-06-02T01:05:10.856Z,97167.20
2018-06-02T01:07:39.234Z,97164.94
2018-06-02T01:10:07.636Z,97161.97
2018-06-02T01:12:36.024Z,97166.17
2018-06-02T01:15:04.425Z,97158.25
2018-06-02T01:17:32.916Z,97155.95
2018-06-02T01:20:01.744Z,97156.22
2018-06-02T01:22:30.220Z,97147.05
2018-06-02T01:24:58.631Z,97156.13
2018-06-02T01:27:27.008Z,97160.19
2018-06-02T01:29:55.393Z,97160.87
2018-06-02T01:32:23.812Z,97159.67
2018-06-02T01:34:52.216Z,97151.07
2018-06-02T01:37:20.607Z,97150.94
2018-06-02T01:39:49.002Z,97157.17
2018-06-02T01:42:17.399Z,97165.39
2018-06-02T01:44:45.783Z,97167.02
2018-06-02T01:47:14.183Z,97171.75
2018-06-02T01:49:42.568Z,97170.66
2018-06-02T01:52:10.980Z,97167.00
2018-06-02T01:54:39.360Z,97166.33
2018-06-02T01:57:07.765Z,97170.91
2018-06-02T01:59:36.152Z,97164.16
2018-06-02T02:02:04.565Z,97165.35
2018-06-02T02:04:32.948Z,97166.65
2018-06-02T02:07:01.351Z,97164.98
2018-06-02T02:09:29.744Z,97172.92
2018-06-02T02:11:58.155Z,97168.56
2018-06-02T02:14:26.535Z,97170.78
2018-06-02T02:16:54.936Z,97172.48
2018-06-02T02:19:23.332Z,97171.70
2018-06-02T02:21:51.750Z,97175.56
2018-06-02T02:24:20.915Z,97173.72
2018-06-02T02:26:49.327Z,97172.80
2018-06-02T02:29:18.900Z,97173.41
2018-06-02T02:31:47.725Z,97175.00
2018-06-02T02:34:16.682Z,97177.70
2018-06-02T02:36:45.204Z,97181.52
2018-06-02T02:39:14.507Z,97182.06
2018-06-02T02:41:43.388Z,97188.08
2018-06-02T02:44:12.534Z,97190.78
2018-06-02T02:46:40.940Z,97188.59
2018-06-02T02:49:10.250Z,97188.45
2018-06-02T02:51:38.657Z,97191.42
2018-06-02T02:54:07.741Z,97187.81
2018-06-02T02:56:36.148Z,97186.39
2018-06-02T02:59:05.079Z,97187.23
2018-06-02T03:01:33.590Z,97184.49
2018-06-02T03:04:02.664Z,97190.27
2018-06-02T03:06:31.093Z,97191.05
2018-06-02T03:09:00.163Z,97191.05
2018-06-02T03:11:29.331Z,97188.03
2018-06-02T03:13:58.059Z,97191.53
2018-06-02T03:16:26.471Z,97189.34
2018-06-02T03:18:55.396Z,97186.53
2018-06-02T03:21:24.007Z,97189.06
2018-06-02T03:23:52.402Z,97187.63
2018-06-02T03:26:20.811Z,97186.27
2018-06-02T03:28:49.208Z,97188.52
2018-06-02T03:31:17.619Z,97183.11
2018-06-02T03:33:46.016Z,97188.65
2018-06-02T03:36:14.419Z,97192.86
2018-06-02T03:38:42.811Z,97194.94
2018-06-02T03:41:11.216Z,97192.17
2018-06-02T03:43:39.605Z,97194.16
2018-06-02T03:46:08.028Z,97194.80
2018-06-02T03:48:36.428Z,97194.61
2018-06-02T03:51:04.849Z,97197.17
2018-06-02T03:53:33.228Z,97197.94
2018-06-02T03:56:01.648Z,97200.66
2018-06-02T03:58:30.024Z,97205.11
2018-06-02T04:00:58.440Z,97210.90
2018-06-02T04:03:26.832Z,97216.30
2018-06-02T04:05:55.244Z,97215.08
2018-06-02T04:08:23.632Z,97211.06
2018-06-02T04:10:52.045Z,97208.84
2018-06-02T04:13:20.448Z,97213.72
2018-06-02T04:15:48.877Z,97214.52
2018-06-02T04:18:18.389Z,97215.75
2018-06-02T04:20:49.020Z,97218.83
2018-06-02T04:23:17.404Z,97209.82
2018-06-02T04:25:45.815Z,97214.64
2018-06-02T04:28:14.207Z,97217.53
2018-06-02T04:30:42.619Z,97219.42
2018-06-02T04:33:11.012Z,97215.95
2018-06-02T04:35:39.403Z,97218.69
2018-06-02T04:38:07.811Z,97220.66
2018-06-02T04:40:36.227Z,97223.31
2018-06-02T04:43:04.969Z,97220.27
2018-06-02T04:45:33.348Z,97218.55
2018-06-02T04:48:01.786Z,97226.37
2018-06-02T04:50:30.176Z,97222.34
2018-06-02T04:52:58.587Z,97223.97
2018-06-02T04:55:26.975Z,97226.14
2018-06-02T04:57:55.379Z,97228.94
2018-06-02T05:00:23.772Z,97230.24
2018-06-02T05:02:52.187Z,97234.66
2018-06-02T05:05:20.584Z,97228.78
2018-06-02T05:07:49.004Z,97228.64
2018-06-02T05:10:17.395Z,97229.77
2018-06-02T05:12:45.811Z,97233.20
2018-06-02T05:15:14.221Z,97236.94
2018-06-02T05:17:42.624Z,97232.53
2018-06-02T05:20:11.072Z,97237.13
2018-06-02T05:22:39.619Z,97239.08
2018-06-02T05:25:08.013Z,97245.02
2018-06-02T05:27:36.437Z,97240.17
2018-06-02T05:30:04.828Z,97248.61
2018-06-02T05:32:33.236Z,97251.66
2018-06-02T05:35:01.624Z,97258.49
2018-06-02T05:37:30.041Z,97253.14
2018-06-02T05:39:58.434Z,97252.52
2018-06-02T05:42:26.836Z,97258.11
2018-06-02T05:44:55.228Z,97263.54
2018-06-02T05:47:23.639Z,97260.44
2018-06-02T05:49:52.045Z,97256.00
2018-06-02T05:52:20.460Z,97253.71
2018-06-02T05:54:48.856Z,97262.26
2018-06-02T05:57:17.263Z,97261.25
2018-06-02T05:59:46.188Z,97257.70
2018-06-02T06:02:14.864Z,97262.57
2018-06-02T06:04:43.299Z,97263.92
2018-06-02T06:07:11.784Z,97266.03
2018-06-02T06:09:40.995Z,97264.86
2018-06-02T06:12:09.780Z,97259.58
2018-06-02T06:14:38.860Z,97258.03
2018-06-02T06:17:07.272Z,97253.58
2018-06-02T06:19:35.720Z,97256.94
2018-06-02T06:22:04.217Z,97257.48
2018-06-02T06:24:33.439Z,97254.58
2018-06-02T06:27:02.200Z,97253.55
2018-06-02T06:29:30.780Z,97248.55
2018-06-02T06:31:59.492Z,97257.50
2018-06-02T06:34:28.236Z,97246.95
2018-06-02T06:36:57.755Z,97250.03
2018-06-02T06:39:26.884Z,97249.31
2018-06-02T06:41:55.658Z,97247.61
2018-06-02T06:44:24.890Z,97244.16
2018-06-02T06:46:55.984Z,97237.98
2018-06-02T06:49:25.017Z,97236.22
2018-06-02T06:51:53.674Z,97234.19
2018-06-02T06:54:22.514Z,97239.36
2018-06-02T06:56:51.152Z,97233.63
2018-06-02T06:59:19.540Z,97235.84
2018-06-02T07:01:48.523Z,97240.84
2018-06-02T07:04:17.115Z,97230.39
2018-06-02T07:06:45.580Z,97229.91
2018-06-02T07:09:14.379Z,97238.33
2018-06-02T07:11:42.819Z,97238.37
2018-06-02T07:14:11.508Z,97243.32
2018-06-02T07:16:40.534Z,97242.17
2018-06-02T07:19:08.916Z,97238.56
2018-06-02T07:21:37.395Z,97235.69
2018-06-02T07:24:05.779Z,97236.07
2018-06-02T07:26:34.464Z,97247.58
2018-06-02T07:29:02.856Z,97250.05
2018-06-02T07:31:31.285Z,97251.03
2018-06-02T07:33:59.683Z,97256.78
2018-06-02T07:36:28.092Z,97259.64
2018-06-02T07:38:56.473Z,97254.03
2018-06-02T07:41:24.874Z,97246.16
2018-06-02T07:43:53.252Z,97250.00
2018-06-02T07:46:21.628Z,97251.30
2018-06-02T07:48:50.020Z,97251.10
2018-06-02T07:51:18.417Z,97248.83
2018-06-02T07:53:46.804Z,97251.26
2018-06-02T07:56:15.196Z,97245.12
2018-06-02T07:58:43.595Z,97236.78
2018-06-02T08:01:11.972Z,97236.89
2018-06-02T08:03:40.372Z,97235.64
2018-06-02T08:06:08.757Z,97237.58
2018-06-02T08:08:37.176Z,97233.13
2018-06-02T08:11:05.523Z,97236.95
2018-06-02T08:13:33.928Z,97230.33
2018-06-02T08:16:02.308Z,97235.39
2018-06-02T08:18:30.712Z,97246.39
2018-06-02T08:20:59.099Z,97249.51
2018-06-02T08:23:27.518Z,97245.42
2018-06-02T08:25:55.908Z,97242.48
2018-06-02T08:28:24.480Z,97237.75
2018-06-02T08:30:52.852Z,97244.40
2018-06-02T08:33:21.512Z,97242.41
2018-06-02T08:35:50.595Z,97243.66
2018-06-02T08:38:19.283Z,97240.84
2018-06-02T08:40:48.014Z,97250.51
2018-06-02T08:43:17.120Z,97254.31
2018-06-02T08:45:47.357Z,97251.81
2018-06-02T08:48:17.432Z,97252.86
2018-06-02T08:50:45.924Z,97244.52
2018-06-02T08:53:14.692Z,97243.86
2018-06-02T08:55:43.641Z,97246.92
2018-06-02T08:58:12.203Z,97259.38
2018-06-02T09:00:40.865Z,97265.11
2018-06-02T09:03:09.367Z,97263.25
2018-06-02T09:05:37.747Z,97257.95
2018-06-02T09:08:06.145Z,97270.92
2018-06-02T09:10:34.527Z,97272.77
2018-06-02T09:13:02.923Z,97273.55
2018-06-02T09:15:31.337Z,97273.72
2018-06-02T09:17:59.728Z,97269.92
2018-06-02T09:20:28.107Z,97271.02
2018-06-02T09:22:56.512Z,97267.77
2018-06-02T09:25:25.396Z,97268.95
2018-06-02T09:27:54.230Z,97272.63
2018-06-02T09:30:22.656Z,97272.54
2018-06-02T09:32:51.520Z,97266.78
2018-06-02T09:35:20.160Z,97264.30
2018-06-02T09:37:48.613Z,97266.70
2018-06-02T09:40:17.093Z,97267.67
2018-06-02T09:42:45.576Z,97270.56
2018-06-02T09:45:14.170Z,97267.72
2018-06-02T09:47:42.575Z,97268.05
2018-06-02T09:50:10.940Z,97265.98
2018-06-02T09:52:39.344Z,97267.79
2018-06-02T09:55:07.724Z,97267.66
2018-06-02T09:57:36.120Z,97264.92
2018-06-02T10:00:04.500Z,97261.84
2018-06-02T10:02:32.900Z,97257.63
2018-06-02T10:05:01.280Z,97257.78
2018-06-02T10:07:29.684Z,97262.65
2018-06-02T10:09:58.068Z,97262.02
2018-06-02T10:12:26.468Z,97266.77
2018-06-02T10:14:54.860Z,97266.27
2018-06-02T10:17:23.255Z,97260.92
2018-06-02T10:19:51.628Z,97263.53
2018-06-02T10:22:20.033Z,97260.59
2018-06-02T10:24:48.408Z,97256.82
2018-06-02T10:27:18.263Z,97260.05
2018-06-02T10:29:47.340Z,97250.69
2018-06-02T10:32:16.011Z,97251.89
2018-06-02T10:34:44.438Z,97251.60
2018-06-02T10:37:13.242Z,97248.58
2018-06-02T10:39:42.020Z,97252.11
2018-06-02T10:42:11.265Z,97246.40
2018-06-02T10:44:40.228Z,97239.84
2018-06-02T10:47:08.593Z,97237.38
2018-06-02T10:49:36.975Z,97239.92
2018-06-02T10:52:05.367Z,97244.46
2018-06-02T10:54:33.768Z,97237.50
2018-06-02T10:57:02.164Z,97226.00
2018-06-02T10:59:30.544Z,97224.91
2018-06-02T11:01:58.919Z,97222.14
2018-06-02T11:04:27.315Z,97231.56
2018-06-02T11:06:55.700Z,97227.70
2018-06-02T11:09:24.112Z,97224.55
2018-06-02T11:11:52.491Z,97212.03
2018-06-02T11:14:20.895Z,97218.03
2018-06-02T11:16:49.288Z,97218.36
2018-06-02T11:19:17.683Z,97222.84
2018-06-02T11:21:46.061Z,97221.88
2018-06-02T11:24:14.459Z,97220.63
2018-06-02T11:26:42.843Z,97214.75
2018-06-02T11:29:11.688Z,97209.73
2018-06-02T11:31:40.775Z,97209.75
2018-06-02T11:34:09.744Z,97205.84
2018-06-02T11:36:38.533Z,97214.16
2018-06-02T11:39:07.303Z,97213.38
2018-06-02T11:41:35.776Z,97209.84
2018-06-02T11:44:04.802Z,97207.89
2018-06-02T11:46:33.161Z,97202.27
2018-06-02T11:49:01.561Z,97202.27
2018-06-02T11:51:29.939Z,97197.48
2018-06-02T11:53:58.343Z,97199.67
2018-06-02T11:56:26.728Z,97195.06
2018-06-02T11:58:55.132Z,97188.75
2018-06-02T12:01:23.519Z,97187.97
2018-06-02T12:03:51.913Z,97180.03
2018-06-02T12:06:20.296Z,97178.95
2018-06-02T12:08:48.696Z,97176.08
2018-06-02T12:11:17.079Z,97180.06
2018-06-02T12:13:45.494Z,97183.59
2018-06-02T12:16:13.880Z,97174.46
2018-06-02T12:18:42.285Z,97177.05
2018-06-02T12:21:10.663Z,97179.78
2018-06-02T12:23:39.068Z,97171.98
2018-06-02T12:26:07.460Z,97160.62
2018-06-02T12:28:35.924Z,97159.82
2018-06-02T12:31:04.723Z,97167.41
2018-06-02T12:33:33.395Z,97162.73
2018-06-02T12:36:02.459Z,97167.44
2018-06-02T12:38:30.868Z,97154.45
2018-06-02T12:40:59.252Z,97153.64
2018-06-02T12:43:27.831Z,97152.44
2018-06-02T12:45:56.211Z,97151.41
2018-06-02T12:48:24.616Z,97147.59
2018-06-02T12:50:53.003Z,97155.36
2018-06-02T12:53:21.443Z,97149.27
2018-06-02T12:55:49.772Z,97147.30
2018-06-02T12:58:18.184Z,97155.34
2018-06-02T13:00:46.555Z,97155.47
2018-06-02T13:03:14.955Z,97156.84
2018-06-02T13:05:43.339Z,97168.26
2018-06-02T13:08:11.739Z,97169.27
2018-06-02T13:10:40.125Z,97179.42
2018-06-02T13:13:08.529Z,97184.14
2018-06-02T13:15:36.907Z,97174.63
2018-06-02T13:18:05.308Z,97162.50
2018-06-02T13:20:33.691Z,97162.75
2018-06-02T13:23:02.080Z,97168.30
2018-06-02T13:25:30.455Z,97162.36
2018-06-02T13:27:59.476Z,97167.06
2018-06-02T13:30:27.859Z,97159.11
2018-06-02T13:32:56.339Z,97157.17
2018-06-02T13:35:25.099Z,97155.13
2018-06-02T13:37:53.927Z,97158.77
2018-06-02T13:40:22.313Z,97154.55
2018-06-02T13:42:50.707Z,97153.64
2018-06-02T13:45:19.079Z,97147.70
2018-06-02T13:47:47.463Z,97152.01
2018-06-02T13:50:15.865Z,97153.64
2018-06-02T13:52:44.268Z,97149.15
2018-06-02T13:55:12.648Z,97151.53
2018-06-02T13:57:41.031Z,97147.42
2018-06-02T14:00:09.419Z,97148.02
2018-06-02T14:02:37.804Z,97145.22
2018-06-02T14:05:06.208Z,97145.20
2018-06-02T14:07:34.588Z,97145.77
2018-06-02T14:10:02.992Z,97143.48
2018-06-02T14:12:31.391Z,97146.33
2018-06-02T14:14:59.783Z,97153.77
2018-06-02T14:17:28.176Z,97143.55
2018-06-02T14:19:56.577Z,97142.29
2018-06-02T14:22:24.960Z,97143.44
2018-06-02T14:24:53.369Z,97141.38
2018-06-02T14:27:21.748Z,97142.73
2018-06-02T14:29:50.152Z,97136.92
2018-06-02T14:32:18.937Z,97139.00
2018-06-02T14:34:47.628Z,97141.35
2018-06-02T14:37:16.600Z,97138.70
2018-06-02T14:39:44.998Z,97137.74
2018-06-02T14:42:13.416Z,97135.32
2018-06-02T14:44:42.376Z,97137.73
2018-06-02T14:47:10.759Z,97138.13
2018-06-02T14:49:39.156Z,97144.45
2018-06-02T14:52:08.779Z,97149.17
2018-06-02T14:54:37.384Z,97143.45
2018-06-02T14:57:06.476Z,97148.05
2018-06-02T14:59:35.364Z,97146.36
2018-06-02T15:02:04.459Z,97146.91
2018-06-02T15:04:33.824Z,97144.99
2018-06-02T15:07:02.817Z,97135.92
2018-06-02T15:09:31.775Z,97136.27
2018-06-02T15:12:01.821Z,97126.03
2018-06-02T15:14:30.796Z,97131.46
2018-06-02T15:16:59.180Z,97135.89
2018-06-02T15:19:27.792Z,97130.97
2018-06-02T15:21:57.332Z,97128.80
2018-06-02T15:24:25.728Z,97124.66
2018-06-02T15:26:54.107Z,97125.77
2018-06-02T15:29:25.608Z,97120.23
2018-06-02T15:31:54.260Z,97123.12
2018-06-02T15:34:22.675Z,97112.33
2018-06-02T15:36:51.163Z,97122.47
2018-06-02T15:39:19.571Z,97120.55
2018-06-02T15:41:47.948Z,97121.30
2018-06-02T15:44:17.479Z,97124.63
2018-06-02T15:46:45.863Z,97122.73
2018-06-02T15:49:15.236Z,97120.61
2018-06-02T15:51:44.024Z,97128.27
2018-06-02T15:54:12.776Z,97123.09
2018-06-02T15:56:42.222Z,97126.20
2018-06-02T15:59:10.611Z,97123.88
2018-06-02T16:01:39.475Z,97121.41
2018-06-02T16:04:08.175Z,97120.71
2018-06-02T16:06:37.180Z,97128.64
2018-06-02T16:09:06.681Z,97128.82
2018-06-02T16:11:35.060Z,97119.85
2018-06-02T16:14:03.736Z,97115.84
2018-06-02T16:16:32.115Z,97121.30
2018-06-02T16:19:00.532Z,97113.67
2018-06-02T16:21:29.560Z,97113.01
2018-06-02T16:23:58.087Z,97116.51
2018-06-02T16:26:26.476Z,97117.91
2018-06-02T16:28:55.423Z,97116.98
2018-06-02T16:31:23.809Z,97106.08
2018-06-02T16:33:53.040Z,97105.66
2018-06-02T16:36:21.694Z,97106.67
2018-06-02T16:38:50.543Z,97110.86
2018-06-02T16:41:19.422Z,97100.08
2018-06-02T16:43:47.815Z,97099.16
2018-06-02T16:46:16.693Z,97099.44
2018-06-02T16:48:45.536Z,97100.35
2018-06-02T16:51:13.918Z,97093.23
2018-06-02T16:53:42.515Z,97091.70
2018-06-02T16:56:11.288Z,97090.37
2018-06-02T16:58:39.923Z,97091.19
2018-06-02T17:01:08.372Z,97086.38
2018-06-02T17:03:36.859Z,97090.66
2018-06-02T17:06:05.963Z,97087.67
2018-06-02T17:08:34.618Z,97089.44
2018-06-02T17:11:03.328Z,97089.36
2018-06-02T17:13:31.727Z,97087.75
2018-06-02T17:16:01.083Z,97095.61
2018-06-02T17:18:29.928Z,97094.39
2018-06-02T17:20:58.792Z,97097.09
2018-06-02T17:23:27.608Z,97096.52
2018-06-02T17:25:56.273Z,97102.16
2018-06-02T17:28:24.744Z,97098.76
2018-06-02T17:30:53.143Z,97104.01
2018-06-02T17:33:21.704Z,97103.45
2018-06-02T17:35:50.332Z,97104.31
2018-06-02T17:38:18.907Z,97104.47
2018-06-02T17:40:47.419Z,97106.33
2018-06-02T17:43:15.863Z,97102.01
2018-06-02T17:45:44.284Z,97100.33
2018-06-02T17:48:12.667Z,97100.89
2018-06-02T17:50:41.060Z,97099.44
2018-06-02T17:53:09.440Z,97101.44
2018-06-02T17:55:37.856Z,97101.25
2018-06-02T17:58:06.279Z,97097.19
2018-06-02T18:00:34.893Z,97097.33
2018-06-02T18:03:03.672Z,97108.20
2018-06-02T18:05:32.324Z,97103.17
2018-06-02T18:08:00.875Z,97108.34
2018-06-02T18:10:29.313Z,97103.54
2018-06-02T18:12:57.692Z,97100.80
2018-06-02T18:15:26.092Z,97107.00
2018-06-02T18:17:54.472Z,97106.72
2018-06-02T18:20:22.868Z,97108.77
2018-06-02T18:22:51.256Z,97111.76
2018-06-02T18:25:19.644Z,97108.20
2018-06-02T18:27:48.024Z,97105.97
2018-06-02T18:30:16.432Z,97106.56
2018-06-02T18:32:44.831Z,97107.52
2018-06-02T18:35:13.223Z,97106.16
2018-06-02T18:37:41.604Z,97105.59
2018-06-02T18:40:10.008Z,97103.19
2018-06-02T18:42:38.386Z,97107.59
2018-06-02T18:45:06.772Z,97107.35
2018-06-02T18:47:35.164Z,97109.10
2018-06-02T18:50:03.559Z,97111.58
2018-06-02T18:52:31.944Z,97112.70
2018-06-02T18:55:00.348Z,97107.23
2018-06-02T18:57:28.964Z,97108.46
2018-06-02T18:59:57.415Z,97110.13
2018-06-02T19:02:25.752Z,97109.84
2018-06-02T19:04:54.787Z,97112.23
2018-06-02T19:07:23.408Z,97114.53
2018-06-02T19:09:52.371Z,97122.67
2018-06-02T19:12:21.106Z,97122.73
2018-06-02T19:14:50.251Z,97120.27
2018-06-02T19:17:18.731Z,97123.12
2018-06-02T19:19:47.135Z,97120.73
2018-06-02T19:22:15.520Z,97127.18
2018-06-02T19:24:43.922Z,97128.58
2018-06-02T19:27:12.667Z,97130.23
2018-06-02T19:29:41.522Z,97137.73
2018-06-02T19:32:10.059Z,97144.64
2018-06-02T19:34:38.882Z,97151.90
2018-06-02T19:37:08.534Z,97159.08
2018-06-02T19:39:38.061Z,97156.66
2018-06-02T19:42:06.439Z,97162.71
2018-06-02T19:44:35.355Z,97163.09
2018-06-02T19:47:03.737Z,97171.64
2018-06-02T19:49:32.130Z,97174.09
2018-06-02T19:52:00.671Z,97178.46
2018-06-02T19:54:29.575Z,97181.22
2018-06-02T19:56:58.106Z,97182.09
2018-06-02T19:59:26.629Z,97180.47
2018-06-02T20:01:55.310Z,97182.50
2018-06-02T20:04:24.221Z,97181.41
2018-06-02T20:06:52.717Z,97188.08
2018-06-02T20:09:21.117Z,97184.77
2018-06-02T20:11:49.492Z,97188.38
2018-06-02T20:14:17.868Z,97190.59
2018-06-02T20:16:46.668Z,97194.59
2018-06-02T20:19:15.575Z,97196.57
2018-06-02T20:21:44.319Z,97194.95
2018-06-02T20:24:12.723Z,97195.20
2018-06-02T20:26:41.510Z,97198.05
2018-06-02T20:29:10.189Z,97202.59
2018-06-02T20:31:39.023Z,97203.96
2018-06-02T20:34:07.581Z,97206.38
2018-06-02T20:36:36.036Z,97207.96
2018-06-02T20:39:05.189Z,97204.72
2018-06-02T20:41:33.836Z,97207.54
2018-06-02T22:06:00.901Z,97267.70
2018-06-02T22:08:29.342Z,97264.13
2018-06-02T22:10:58.638Z,97264.25
2018-06-02T22:13:27.323Z,97266.87
2018-06-02T22:15:55.759Z,97256.63
2018-06-02T22:18:24.393Z,97259.75
2018-06-02T22:20:52.784Z,97257.66
2018-06-02T22:23:21.316Z,97257.56
2018-06-02T22:25:49.990Z,97258.61
2018-06-02T22:28:18.778Z,97264.72
2018-06-02T22:30:47.198Z,97261.22
2018-06-02T22:33:15.833Z,97270.16
2018-06-02T22:35:44.464Z,97263.58
2018-06-02T22:38:13.746Z,97274.09
2018-06-02T22:40:43.387Z,97266.93
2018-06-02T22:43:12.115Z,97263.95
2018-06-02T22:45:40.959Z,97268.30
2018-06-02T22:48:10.131Z,97269.90
2018-06-02T22:50:38.950Z,97269.50
2018-06-02T22:53:07.423Z,97275.86
2018-06-02T22:55:35.839Z,97277.06
2018-06-02T22:58:04.266Z,97278.42
2018-06-02T23:00:32.635Z,97279.23
2018-06-02T23:03:01.448Z,97278.83
2018-06-02T23:05:29.535Z,97274.36
2018-06-02T23:07:57.648Z,97279.49
2018-06-02T23:10:25.740Z,97270.02
2018-06-02T23:12:53.858Z,97268.69
2018-06-02T23:15:21.944Z,97272.56
2018-06-02T23:17:50.064Z,97269.73
2018-06-02T23:20:18.168Z,97269.99
2018-06-02T23:22:46.292Z,97272.31
2018-06-02T23:25:14.383Z,97271.23
2018-06-02T23:27:42.496Z,97268.81
2018-06-02T23:30:10.594Z,97277.72
2018-06-02T23:32:38.700Z,97276.12
2018-06-02T23:35:06.800Z,97277.72
2018-06-02T23:37:34.995Z,97278.41
2018-06-02T23:40:03.097Z,97269.38
2018-06-02T23:42:31.644Z,97274.08
2018-06-02T23:44:59.759Z,97281.25
2018-06-02T23:47:27.883Z,97285.03
2018-06-02T23:49:56.054Z,97281.40
2018-06-02T23:52:24.623Z,97280.16
2018-06-02T23:54:53.016Z,97285.71
2018-06-02T23:57:23.016Z,97289.48
2018-06-02T23:59:51.139Z,97290.97
